Time;durP1;ratioP1;P1;durP2;ratioP2;P2;SDS_P1;SDS_P2;PMS_P1;PMS_P2;Temp;Humidity;BMP_temperature;BMP_pressure;BME280_temperature;BME280_humidity;BME280_pressure;Samples;Min_cycle;Max_cycle;Signal;HPM_P1;HPM_P2
2023/11/10 00:00:33;;;;;;;14.27;8.95;;;7.70;99.90;;;;;;4975556;28;20042;-74
2023/11/10 00:02:59;;;;;;;13.07;9.30;;;7.60;99.90;;;;;;4991619;28;20053;-74
2023/11/10 00:05:25;;;;;;;13.73;9.30;;;7.60;99.90;;;;;;4998202;28;20034;-74
2023/11/10 00:07:51;;;;;;;15.07;9.50;;;7.60;99.90;;;;;;5011134;28;20042;-74
2023/11/10 00:10:17;;;;;;;15.15;9.90;;;7.60;99.90;;;;;;5011448;28;20042;-74
2023/11/10 00:12:43;;;;;;;18.67;10.13;;;7.60;99.90;;;;;;5010821;28;20042;-73
2023/11/10 00:15:09;;;;;;;14.73;9.50;;;7.50;99.90;;;;;;5011085;28;20248;-73
2023/11/10 00:17:35;;;;;;;14.93;9.70;;;7.50;99.90;;;;;;4994790;28;20046;-73
2023/11/10 00:20:00;;;;;;;16.35;9.75;;;7.50;99.90;;;;;;5010931;28;20049;-73
2023/11/10 00:22:26;;;;;;;19.85;10.13;;;7.60;99.90;;;;;;5010772;28;20042;-72
2023/11/10 00:24:52;;;;;;;15.90;9.38;;;7.50;99.90;;;;;;5027237;28;20437;-73
2023/11/10 00:27:18;;;;;;;15.50;8.93;;;7.50;99.90;;;;;;5012332;28;20042;-73
2023/11/10 00:29:44;;;;;;;14.18;9.90;;;7.50;99.90;;;;;;4994692;28;20053;-73
2023/11/10 00:32:13;;;;;;;18.20;10.18;;;7.60;99.90;;;;;;5010805;28;20042;-73
2023/11/10 00:34:40;;;;;;;15.98;10.30;;;7.50;99.90;;;;;;5010542;28;20041;-73
2023/11/10 00:37:06;;;;;;;16.77;10.60;;;7.50;99.90;;;;;;5011927;28;20077;-73
2023/11/10 00:39:32;;;;;;;15.55;10.85;;;7.50;99.90;;;;;;5010453;28;20491;-73
2023/11/10 00:41:58;;;;;;;15.35;9.95;;;7.50;99.90;;;;;;5027506;28;20132;-73
2023/11/10 00:44:27;;;;;;;14.63;9.15;;;7.50;99.90;;;;;;5010564;28;20370;-73
2023/11/10 00:46:53;;;;;;;18.08;11.10;;;7.50;99.90;;;;;;5010784;28;20073;-73
2023/11/10 00:49:19;;;;;;;14.07;10.32;;;7.60;99.90;;;;;;5010729;28;20038;-72
2023/11/10 00:51:44;;;;;;;15.55;9.70;;;7.50;99.90;;;;;;5010677;28;20098;-73
2023/11/10 00:54:10;;;;;;;16.50;10.43;;;7.50;99.90;;;;;;5010303;28;20129;-73
2023/11/10 00:56:36;;;;;;;15.20;10.82;;;7.50;99.90;;;;;;5013413;28;20123;-73
2023/11/10 00:59:03;;;;;;;14.82;10.40;;;7.50;99.90;;;;;;4998096;28;20038;-73
2023/11/10 01:01:37;;;;;;;16.70;10.40;;;7.60;99.90;;;;;;5014668;28;20063;-73
2023/11/10 01:04:04;;;;;;;14.50;10.95;;;7.50;99.90;;;;;;5014201;28;20152;-73
2023/11/10 01:06:30;;;;;;;14.57;10.13;;;7.60;99.90;;;;;;5014747;28;20489;-73
2023/11/10 01:08:57;;;;;;;15.13;9.80;;;7.60;99.90;;;;;;5014841;28;20129;-73
2023/11/10 01:11:23;;;;;;;15.63;9.93;;;7.60;99.90;;;;;;4998150;28;20136;-73
2023/11/10 01:13:49;;;;;;;17.00;11.18;;;7.60;99.90;;;;;;5014042;28;20046;-73
2023/11/10 01:16:15;;;;;;;16.10;10.02;;;7.70;99.90;;;;;;4998322;28;20036;-73
2023/11/10 01:18:41;;;;;;;13.82;9.30;;;7.70;99.90;;;;;;5014089;28;20085;-73
2023/11/10 01:21:07;;;;;;;17.73;9.00;;;7.70;99.90;;;;;;5014507;28;20041;-73
2023/11/10 01:23:33;;;;;;;17.65;9.82;;;7.70;99.90;;;;;;5013968;28;20126;-73
2023/11/10 01:25:59;;;;;;;16.15;9.13;;;7.80;99.90;;;;;;4998031;28;20074;-73
2023/11/10 01:28:25;;;;;;;14.35;8.73;;;7.70;99.90;;;;;;5014199;28;20061;-73
2023/11/10 01:30:52;;;;;;;11.88;8.50;;;7.70;99.90;;;;;;5014117;28;20049;-73
2023/11/10 01:33:18;;;;;;;10.10;7.78;;;7.80;99.90;;;;;;5013566;28;20121;-72
2023/11/10 01:35:44;;;;;;;12.10;8.70;;;7.70;99.90;;;;;;5013948;28;20124;-73
2023/11/10 01:38:10;;;;;;;11.93;7.90;;;7.70;99.90;;;;;;5014318;28;20454;-72
2023/11/10 01:40:40;;;;;;;12.57;8.45;;;7.80;99.90;;;;;;5013931;28;20505;-73
2023/11/10 01:43:11;;;;;;;11.68;7.68;;;7.70;99.90;;;;;;5013484;28;20409;-73
2023/11/10 01:45:37;;;;;;;12.50;6.95;;;7.70;99.90;;;;;;5013865;28;20049;-73
2023/11/10 01:48:04;;;;;;;10.32;7.10;;;7.70;99.90;;;;;;5014958;28;20041;-73
2023/11/10 01:50:31;;;;;;;11.32;7.43;;;7.70;99.90;;;;;;5013781;28;20053;-73
2023/11/10 01:52:58;;;;;;;11.88;7.70;;;7.70;99.90;;;;;;5014736;28;20054;-73
2023/11/10 01:55:23;;;;;;;9.57;7.15;;;7.80;99.90;;;;;;5013691;28;20052;-73
2023/11/10 01:57:49;;;;;;;8.65;6.45;;;7.80;99.90;;;;;;5013767;28;20034;-73
2023/11/10 02:00:19;;;;;;;8.65;6.85;;;7.80;99.90;;;;;;5013479;28;20233;-73
2023/11/10 02:02:45;;;;;;;10.10;6.78;;;7.70;99.90;;;;;;5014621;28;20053;-73
2023/11/10 02:05:11;;;;;;;8.75;6.25;;;7.80;99.90;;;;;;5013727;28;20038;-73
2023/11/10 02:07:36;;;;;;;12.32;6.63;;;7.80;99.90;;;;;;5012449;28;20504;-73
2023/11/10 02:10:03;;;;;;;8.82;5.80;;;7.80;99.90;;;;;;5014615;28;20048;-73
2023/11/10 02:12:29;;;;;;;10.18;6.50;;;7.80;99.90;;;;;;5014218;28;20121;-73
2023/11/10 02:14:55;;;;;;;10.27;5.60;;;7.80;99.90;;;;;;5013295;28;20116;-73
2023/11/10 02:17:20;;;;;;;7.90;5.88;;;7.80;99.90;;;;;;5013228;28;20042;-72
2023/11/10 02:19:46;;;;;;;8.85;5.72;;;7.80;99.90;;;;;;5014483;28;20492;-73
2023/11/10 02:22:12;;;;;;;10.95;6.78;;;7.80;99.90;;;;;;5013132;28;20120;-73
2023/11/10 02:24:40;;;;;;;7.82;5.65;;;7.80;99.90;;;;;;5014183;28;20117;-73
2023/11/10 02:27:06;;;;;;;8.75;5.53;;;7.80;99.90;;;;;;5014313;28;20052;-73
2023/11/10 02:29:37;;;;;;;9.77;5.90;;;7.80;99.90;;;;;;5012855;28;20120;-73
2023/11/10 02:32:03;;;;;;;7.80;5.57;;;7.80;99.90;;;;;;5012942;28;20050;-72
2023/11/10 02:34:28;;;;;;;8.90;4.95;;;7.80;99.90;;;;;;5012513;28;20046;-73
2023/11/10 02:36:54;;;;;;;9.25;5.80;;;7.80;99.90;;;;;;5012849;28;20125;-73
2023/11/10 02:39:19;;;;;;;8.05;5.38;;;7.80;99.90;;;;;;5013862;28;20472;-73
2023/11/10 02:41:45;;;;;;;8.40;5.80;;;7.80;99.90;;;;;;5012718;28;20073;-73
2023/11/10 02:44:11;;;;;;;8.68;5.93;;;7.80;99.90;;;;;;5012210;28;20038;-73
2023/11/10 02:46:37;;;;;;;6.78;4.85;;;7.80;99.90;;;;;;4996609;28;20038;-72
2023/11/10 02:49:03;;;;;;;8.15;5.10;;;7.80;99.90;;;;;;5014101;28;20478;-75
2023/11/10 02:51:29;;;;;;;8.35;4.05;;;7.80;99.90;;;;;;5012958;28;20267;-73
2023/11/10 02:53:55;;;;;;;9.88;5.53;;;7.80;99.90;;;;;;5012525;28;20600;-74
2023/11/10 02:56:21;;;;;;;7.32;4.75;;;7.70;99.90;;;;;;5012435;28;20054;-73
2023/11/10 02:58:47;;;;;;;6.05;4.55;;;7.70;99.90;;;;;;5012449;28;20176;-73
2023/11/10 03:01:23;;;;;;;8.68;4.38;;;7.70;99.90;;;;;;5012411;28;20100;-74
2023/11/10 03:03:50;;;;;;;7.32;4.43;;;7.60;99.90;;;;;;4995995;28;20117;-73
2023/11/10 03:06:15;;;;;;;7.20;4.72;;;7.60;99.90;;;;;;5012424;28;20053;-73
2023/11/10 03:08:41;;;;;;;5.30;3.97;;;7.60;99.90;;;;;;5012197;28;20037;-73
2023/11/10 03:11:06;;;;;;;7.13;5.40;;;7.50;99.90;;;;;;5013369;28;20033;-74
2023/11/10 03:13:32;;;;;;;7.55;4.82;;;7.50;99.90;;;;;;5011914;28;20037;-73
2023/11/10 03:15:59;;;;;;;5.38;4.45;;;7.60;99.90;;;;;;4995790;28;20516;-73
2023/11/10 03:18:25;;;;;;;10.27;4.80;;;7.50;99.90;;;;;;4995797;28;20077;-73
2023/11/10 03:20:50;;;;;;;7.95;4.38;;;7.50;99.90;;;;;;5012237;28;20517;-73
2023/11/10 03:23:16;;;;;;;6.63;4.68;;;7.60;99.90;;;;;;5011765;28;20563;-73
2023/11/10 03:25:41;;;;;;;6.43;4.72;;;7.50;99.90;;;;;;5011768;28;20571;-73
2023/11/10 03:28:07;;;;;;;10.65;4.70;;;7.60;99.90;;;;;;5012075;28;20102;-73
2023/11/10 03:30:33;;;;;;;7.47;5.07;;;7.60;99.90;;;;;;5011901;28;20037;-73
2023/11/10 03:32:58;;;;;;;10.75;4.80;;;7.60;99.90;;;;;;5011726;28;20042;-74
2023/11/10 03:35:24;;;;;;;7.53;5.18;;;7.60;99.90;;;;;;5011847;28;20493;-73
2023/11/10 03:37:50;;;;;;;6.53;4.97;;;7.60;99.90;;;;;;5011917;28;20056;-74
2023/11/10 03:40:15;;;;;;;7.55;4.70;;;7.70;99.90;;;;;;5011547;28;20566;-72
2023/11/10 03:42:42;;;;;;;7.03;4.45;;;7.70;99.90;;;;;;5011522;28;20100;-74
2023/11/10 03:45:08;;;;;;;6.75;4.88;;;7.70;99.90;;;;;;5012018;28;20409;-73
2023/11/10 03:47:34;;;;;;;8.30;4.88;;;7.70;99.90;;;;;;5011565;28;20043;-73
2023/11/10 03:49:59;;;;;;;10.10;5.18;;;7.70;99.90;;;;;;5011389;28;20037;-73
2023/11/10 03:52:25;;;;;;;7.25;5.00;;;7.70;99.90;;;;;;5011454;28;20563;-73
2023/11/10 03:54:51;;;;;;;8.73;4.70;;;7.80;99.90;;;;;;5011363;28;20030;-73
2023/11/10 03:57:16;;;;;;;5.75;4.90;;;7.80;99.90;;;;;;5011305;28;20241;-74
2023/11/10 03:59:42;;;;;;;6.45;4.50;;;7.70;99.90;;;;;;5011234;28;20080;-74
2023/11/10 04:02:09;;;;;;;5.68;4.18;;;7.80;99.90;;;;;;5011280;28;20088;-74
2023/11/10 04:04:35;;;;;;;8.20;4.38;;;7.80;99.90;;;;;;4994535;28;20065;-73
2023/11/10 04:07:03;;;;;;;4.97;4.47;;;7.80;99.90;;;;;;4994748;28;20033;-74
2023/11/10 04:09:34;;;;;;;6.95;4.75;;;7.80;99.90;;;;;;5011247;28;20045;-74
2023/11/10 04:12:00;;;;;;;10.52;4.93;;;7.80;99.90;;;;;;5011106;28;20042;-73
2023/11/10 04:14:26;;;;;;;6.18;4.65;;;7.90;99.90;;;;;;5010691;28;20092;-73
2023/11/10 04:16:51;;;;;;;5.22;3.80;;;7.90;99.90;;;;;;5011467;28;20077;-73
2023/11/10 04:19:17;;;;;;;7.70;4.63;;;7.80;99.90;;;;;;4994660;28;20042;-74
2023/11/10 04:21:43;;;;;;;8.88;5.10;;;7.80;99.90;;;;;;5011277;28;20408;-73
2023/11/10 04:24:11;;;;;;;6.15;4.65;;;7.90;99.90;;;;;;5010516;28;20065;-73
2023/11/10 04:26:37;;;;;;;7.63;4.18;;;7.90;99.90;;;;;;5010965;28;20129;-73
2023/11/10 04:29:05;;;;;;;7.95;5.05;;;7.90;99.90;;;;;;5011013;28;20060;-73
2023/11/10 04:31:31;;;;;;;9.18;4.38;;;7.90;99.90;;;;;;5010273;28;20049;-73
2023/11/10 04:33:57;;;;;;;5.30;4.03;;;7.90;99.90;;;;;;5010413;28;20045;-73
2023/11/10 04:36:22;;;;;;;6.05;4.93;;;7.90;99.90;;;;;;5010785;28;20073;-74
2023/11/10 04:38:48;;;;;;;6.38;4.18;;;7.90;99.90;;;;;;5019309;22;20129;-75
2023/11/10 04:41:16;;;;;;;5.85;4.28;;;7.90;99.90;;;;;;5011019;28;20042;-75
2023/11/10 04:43:42;;;;;;;8.38;4.88;;;7.90;99.90;;;;;;5011210;28;20501;-75
2023/11/10 04:46:08;;;;;;;7.03;4.35;;;7.90;99.90;;;;;;5011751;28;20038;-74
2023/11/10 04:48:33;;;;;;;6.13;3.90;;;7.90;99.90;;;;;;5015789;28;20049;-75
2023/11/10 04:51:03;;;;;;;6.90;4.40;;;7.90;99.90;;;;;;5031940;28;20065;-75
2023/11/10 04:53:28;;;;;;;7.22;4.38;;;7.90;99.90;;;;;;5031376;28;20041;-75
2023/11/10 04:55:54;;;;;;;10.35;4.78;;;7.90;99.90;;;;;;5014191;28;20397;-75
2023/11/10 04:58:20;;;;;;;5.97;4.10;;;7.80;99.90;;;;;;5031674;28;20542;-75
2023/11/10 05:00:45;;;;;;;5.93;3.45;;;7.90;99.90;;;;;;5030192;28;20477;-75
2023/11/10 05:03:12;;;;;;;5.80;4.15;;;7.80;99.90;;;;;;5031825;28;20412;-75
2023/11/10 05:05:38;;;;;;;4.90;3.75;;;7.80;99.90;;;;;;5030489;28;20033;-75
2023/11/10 05:08:03;;;;;;;8.00;3.92;;;7.80;99.90;;;;;;5031712;28;20037;-75
2023/11/10 05:10:30;;;;;;;5.75;4.43;;;7.80;99.90;;;;;;5031625;28;20048;-75
2023/11/10 05:12:55;;;;;;;5.63;4.55;;;7.80;99.90;;;;;;5031570;28;20045;-75
2023/11/10 05:15:21;;;;;;;4.55;4.07;;;7.90;99.90;;;;;;5032539;28;20048;-75
2023/11/10 05:17:47;;;;;;;5.97;4.20;;;7.90;99.90;;;;;;5031636;28;20048;-75
2023/11/10 05:20:14;;;;;;;5.72;4.00;;;7.90;99.90;;;;;;5031771;28;20045;-75
2023/11/10 05:22:42;;;;;;;7.68;4.15;;;7.80;99.90;;;;;;5029865;28;20121;-75
2023/11/10 05:25:08;;;;;;;6.10;4.15;;;7.80;99.90;;;;;;5030256;28;20599;-75
2023/11/10 05:27:34;;;;;;;7.05;4.43;;;7.90;99.90;;;;;;5030584;28;20034;-75
2023/11/10 05:30:00;;;;;;;5.60;3.53;;;7.80;99.90;;;;;;5030337;28;20052;-75
2023/11/10 05:32:26;;;;;;;5.80;3.83;;;7.80;99.90;;;;;;5029948;28;20052;-75
2023/11/10 05:34:54;;;;;;;5.63;4.10;;;7.80;99.90;;;;;;5031454;28;20041;-75
2023/11/10 05:37:26;;;;;;;6.00;4.43;;;7.80;99.90;;;;;;5030067;28;20124;-75
2023/11/10 05:39:52;;;;;;;9.57;4.18;;;7.80;99.90;;;;;;5031112;28;20041;-75
2023/11/10 05:42:20;;;;;;;6.25;3.97;;;7.80;99.90;;;;;;5033199;28;20045;-75
2023/11/10 05:44:45;;;;;;;8.35;4.03;;;7.80;99.90;;;;;;5034775;28;20457;-75
2023/11/10 05:47:11;;;;;;;6.45;3.83;;;7.90;99.90;;;;;;5034939;28;20087;-74
2023/11/10 05:49:37;;;;;;;7.82;4.38;;;7.80;99.90;;;;;;5035035;28;20701;-75
2023/11/10 05:52:04;;;;;;;13.90;4.70;;;7.80;99.90;;;;;;5033773;28;20056;-75
2023/11/10 05:54:30;;;;;;;8.60;4.68;;;7.80;99.90;;;;;;5034644;28;20049;-74
2023/11/10 05:56:56;;;;;;;7.30;4.53;;;7.90;99.90;;;;;;5034793;28;20080;-75
2023/11/10 05:59:23;;;;;;;9.30;4.45;;;7.80;99.90;;;;;;5034583;28;20076;-75
2023/11/10 06:01:48;;;;;;;7.55;4.38;;;7.90;99.90;;;;;;5033404;28;20050;-75
2023/11/10 06:04:15;;;;;;;6.70;4.72;;;7.80;99.90;;;;;;5034481;28;20396;-75
2023/11/10 06:06:43;;;;;;;6.43;4.25;;;7.70;99.90;;;;;;5034740;28;20034;-75
2023/11/10 06:09:12;;;;;;;8.38;4.72;;;7.80;99.90;;;;;;5016995;28;20042;-75
2023/11/10 06:11:37;;;;;;;9.38;5.50;;;7.80;99.90;;;;;;5033365;28;20053;-75
2023/11/10 06:14:03;;;;;;;8.35;5.07;;;7.80;99.90;;;;;;5034024;28;20068;-75
2023/11/10 06:16:29;;;;;;;9.65;5.65;;;7.80;99.90;;;;;;5034445;28;20095;-75
2023/11/10 06:18:56;;;;;;;9.40;5.90;;;7.80;99.90;;;;;;5033048;28;20037;-75
2023/11/10 06:21:23;;;;;;;6.13;4.63;;;7.70;99.90;;;;;;5033080;28;20547;-75
2023/11/10 06:23:52;;;;;;;6.47;4.68;;;7.60;99.90;;;;;;5032643;28;20512;-75
2023/11/10 06:26:18;;;;;;;9.30;4.95;;;7.60;99.90;;;;;;5032957;28;20420;-75
2023/11/10 06:28:44;;;;;;;7.68;4.57;;;7.60;99.90;;;;;;5032788;28;20037;-74
2023/11/10 06:31:11;;;;;;;6.70;5.13;;;7.60;99.90;;;;;;5032960;28;20033;-75
2023/11/10 06:33:39;;;;;;;8.88;4.63;;;7.50;99.90;;;;;;5032747;28;20124;-75
2023/11/10 06:36:05;;;;;;;6.20;4.45;;;7.50;99.90;;;;;;5032773;28;20045;-75
2023/11/10 06:38:30;;;;;;;6.72;5.07;;;7.40;99.90;;;;;;5032518;28;20041;-75
2023/11/10 06:40:56;;;;;;;11.52;5.10;;;7.50;99.90;;;;;;5033993;28;20042;-74
2023/11/10 06:43:22;;;;;;;6.82;4.70;;;7.40;99.90;;;;;;5032047;28;20107;-75
2023/11/10 06:45:48;;;;;;;7.95;5.13;;;7.40;99.90;;;;;;5016145;28;20056;-75
2023/11/10 06:48:14;;;;;;;6.82;4.80;;;7.40;99.90;;;;;;5032347;28;20087;-74
2023/11/10 06:50:41;;;;;;;8.55;5.10;;;7.50;99.90;;;;;;5032664;28;20048;-75
2023/11/10 06:53:08;;;;;;;7.43;4.78;;;7.50;99.90;;;;;;5031750;28;20050;-75
2023/11/10 06:55:35;;;;;;;9.90;4.95;;;7.40;99.90;;;;;;5033841;28;20141;-74
2023/11/10 06:58:02;;;;;;;7.63;5.03;;;7.40;99.90;;;;;;5033572;28;20068;-74
2023/11/10 07:00:29;;;;;;;7.40;4.70;;;7.40;99.90;;;;;;5033634;28;20436;-74
2023/11/10 07:02:59;;;;;;;8.10;5.05;;;7.40;99.90;;;;;;5032767;28;20041;-75
2023/11/10 07:05:28;;;;;;;8.20;5.10;;;7.40;99.90;;;;;;5022885;28;20087;-75
2023/11/10 07:07:54;;;;;;;8.48;5.32;;;7.30;99.90;;;;;;5026324;28;20034;-74
2023/11/10 07:10:20;;;;;;;7.22;4.90;;;7.40;99.90;;;;;;5030554;28;20048;-74
2023/11/10 07:12:46;;;;;;;8.10;5.65;;;7.40;99.90;;;;;;5011127;28;20037;-74
2023/11/10 07:15:12;;;;;;;11.23;5.55;;;7.40;99.90;;;;;;5015545;28;20037;-76
2023/11/10 07:17:38;;;;;;;14.60;6.93;;;7.40;99.90;;;;;;5012478;28;20131;-73
2023/11/10 07:20:11;;;;;;;10.45;5.75;;;7.40;99.90;;;;;;5014118;28;20038;-74
2023/11/10 07:22:38;;;;;;;11.55;6.15;;;7.40;99.90;;;;;;5019498;28;20033;-73
2023/11/10 07:25:04;;;;;;;9.23;4.93;;;7.40;99.90;;;;;;5028053;28;20088;-74
2023/11/10 07:27:30;;;;;;;10.13;5.82;;;7.30;99.90;;;;;;5013794;28;20065;-73
2023/11/10 07:29:56;;;;;;;9.98;5.93;;;7.40;99.90;;;;;;5013621;28;20532;-73
2023/11/10 07:32:22;;;;;;;9.73;5.38;;;7.40;99.90;;;;;;5028230;28;20033;-73
2023/11/10 07:34:48;;;;;;;8.85;5.80;;;7.40;99.90;;;;;;5032855;28;20041;-73
2023/11/10 07:37:14;;;;;;;13.25;6.30;;;7.40;99.90;;;;;;5048447;28;20381;-73
2023/11/10 07:39:43;;;;;;;13.18;5.88;;;7.40;99.90;;;;;;5032516;28;20037;-74
2023/11/10 07:42:08;;;;;;;11.00;6.40;;;7.60;99.90;;;;;;5032979;28;20045;-74
2023/11/10 07:44:34;;;;;;;11.77;6.78;;;7.60;99.90;;;;;;5032481;28;20032;-73
2023/11/10 07:47:00;;;;;;;12.43;6.28;;;7.60;99.90;;;;;;5024813;28;20472;-73
2023/11/10 07:49:25;;;;;;;9.80;6.05;;;7.60;99.90;;;;;;5011804;28;20042;-73
2023/11/10 07:51:53;;;;;;;14.77;6.78;;;7.70;99.90;;;;;;5016100;28;20497;-73
2023/11/10 07:54:23;;;;;;;14.13;6.22;;;7.70;99.90;;;;;;5030967;28;20034;-73
2023/11/10 07:56:49;;;;;;;10.45;6.78;;;7.90;99.90;;;;;;5032712;28;20054;-73
2023/11/10 07:59:15;;;;;;;12.05;6.95;;;8.00;99.90;;;;;;5032482;28;20143;-73
2023/11/10 08:01:41;;;;;;;12.23;6.75;;;8.00;99.90;;;;;;5032614;28;20053;-73
2023/11/10 08:04:09;;;;;;;13.98;7.13;;;8.10;99.90;;;;;;5030862;28;20033;-74
2023/11/10 08:06:36;;;;;;;11.45;6.47;;;8.00;99.90;;;;;;5030357;28;20076;-73
2023/11/10 08:09:03;;;;;;;14.00;7.15;;;8.00;99.90;;;;;;5032448;28;20110;-73
2023/11/10 08:11:30;;;;;;;15.15;6.72;;;8.00;99.90;;;;;;5014595;28;20045;-73
2023/11/10 08:13:56;;;;;;;11.07;6.45;;;8.00;99.90;;;;;;5030865;28;20050;-74
2023/11/10 08:16:22;;;;;;;11.43;7.05;;;8.10;99.90;;;;;;5032369;28;20060;-73
2023/11/10 08:18:47;;;;;;;9.27;6.32;;;8.10;99.90;;;;;;5030241;28;20496;-73
2023/11/10 08:21:20;;;;;;;10.48;6.80;;;8.10;99.90;;;;;;5030365;28;20049;-74
2023/11/10 08:23:46;;;;;;;12.85;6.45;;;8.10;99.90;;;;;;5026340;28;20076;-74
2023/11/10 08:26:12;;;;;;;13.43;7.82;;;8.20;99.90;;;;;;5011222;28;20041;-73
2023/11/10 08:28:38;;;;;;;11.23;6.50;;;8.20;99.90;;;;;;5030903;28;20046;-73
2023/11/10 08:31:04;;;;;;;9.10;6.53;;;8.20;99.90;;;;;;5030751;28;20042;-73
2023/11/10 08:33:30;;;;;;;9.30;6.70;;;8.20;99.90;;;;;;5030284;28;20034;-74
2023/11/10 08:35:56;;;;;;;12.05;6.72;;;8.30;99.90;;;;;;5031849;28;20033;-74
2023/11/10 08:38:22;;;;;;;9.27;6.85;;;8.30;99.90;;;;;;5030644;28;20084;-74
2023/11/10 08:40:48;;;;;;;8.90;6.50;;;8.40;99.90;;;;;;5031406;28;20075;-74
2023/11/10 08:43:14;;;;;;;15.25;6.85;;;8.40;99.90;;;;;;5030170;28;20049;-74
2023/11/10 08:45:39;;;;;;;11.10;6.78;;;8.60;99.90;;;;;;5029956;28;20065;-74
2023/11/10 08:48:05;;;;;;;14.32;7.07;;;8.60;99.90;;;;;;5030289;28;20456;-74
2023/11/10 08:50:32;;;;;;;13.77;7.30;;;8.70;99.90;;;;;;5029904;28;20128;-74
2023/11/10 08:52:58;;;;;;;15.70;7.22;;;8.70;99.90;;;;;;5030112;28;20085;-74
2023/11/10 08:55:24;;;;;;;11.30;6.68;;;8.70;99.90;;;;;;5031776;28;20538;-73
2023/11/10 08:57:50;;;;;;;12.73;6.90;;;8.80;99.90;;;;;;5030455;28;20128;-73
2023/11/10 09:00:17;;;;;;;11.85;7.00;;;8.80;99.90;;;;;;5031562;28;20121;-74
2023/11/10 09:02:44;;;;;;;16.73;6.70;;;8.80;99.90;;;;;;5030170;28;20045;-74
2023/11/10 09:05:10;;;;;;;11.57;6.47;;;8.90;99.90;;;;;;5030257;28;20492;-74
2023/11/10 09:07:41;;;;;;;12.95;7.35;;;8.70;99.90;;;;;;5031757;28;20037;-74
2023/11/10 09:10:08;;;;;;;9.07;6.07;;;8.70;99.90;;;;;;5030265;28;20095;-74
2023/11/10 09:12:33;;;;;;;12.30;6.38;;;8.70;99.90;;;;;;5029891;28;20045;-74
2023/11/10 09:14:59;;;;;;;9.50;6.00;;;8.80;99.90;;;;;;5030259;28;20125;-74
2023/11/10 09:17:25;;;;;;;7.85;5.60;;;8.80;99.90;;;;;;5032411;28;20041;-73
2023/11/10 09:19:51;;;;;;;13.90;5.82;;;8.90;99.90;;;;;;5034080;28;20044;-73
2023/11/10 09:22:18;;;;;;;10.32;5.55;;;8.80;99.90;;;;;;5035555;28;20060;-74
2023/11/10 09:24:45;;;;;;;13.77;5.50;;;8.80;99.90;;;;;;5033860;28;20503;-74
2023/11/10 09:27:10;;;;;;;12.40;5.28;;;8.80;99.90;;;;;;5035438;28;20042;-74
2023/11/10 09:29:36;;;;;;;10.63;5.47;;;8.90;99.90;;;;;;5035284;28;20045;-73
2023/11/10 09:32:02;;;;;;;8.60;5.22;;;8.90;99.90;;;;;;5033459;28;20041;-74
2023/11/10 09:34:28;;;;;;;11.07;5.25;;;8.80;99.90;;;;;;5032694;28;20060;-74
2023/11/10 09:36:54;;;;;;;12.82;5.45;;;8.90;99.90;;;;;;5033345;28;20042;-74
2023/11/10 09:39:20;;;;;;;11.23;6.10;;;9.00;99.90;;;;;;5034511;28;20030;-74
2023/11/10 09:41:53;;;;;;;10.07;5.22;;;9.00;99.90;;;;;;5033547;28;20029;-74
2023/11/10 09:44:20;;;;;;;8.50;4.72;;;9.00;99.90;;;;;;5032462;28;20060;-74
2023/11/10 09:46:49;;;;;;;8.93;4.45;;;9.00;99.90;;;;;;5034434;28;20588;-74
2023/11/10 09:49:18;;;;;;;8.90;5.53;;;9.00;99.90;;;;;;5032173;28;20505;-75
2023/11/10 09:51:46;;;;;;;8.77;5.47;;;9.10;99.90;;;;;;5033030;28;20056;-75
2023/11/10 09:54:12;;;;;;;9.02;4.25;;;9.10;99.90;;;;;;5033669;28;20124;-75
2023/11/10 09:56:39;;;;;;;8.65;4.60;;;9.10;99.90;;;;;;5033845;28;20508;-74
2023/11/10 09:59:07;;;;;;;10.35;4.30;;;9.00;99.90;;;;;;5048793;28;20033;-75
2023/11/10 10:01:33;;;;;;;7.97;4.38;;;9.00;99.90;;;;;;5040842;28;20042;-75
2023/11/10 10:03:59;;;;;;;10.73;4.03;;;9.10;99.90;;;;;;5034524;28;20492;-74
2023/11/10 10:06:25;;;;;;;7.72;3.97;;;9.00;99.90;;;;;;5034767;28;20035;-75
2023/11/10 10:08:57;;;;;;;7.50;3.75;;;9.00;99.90;;;;;;5033520;28;20052;-75
2023/11/10 10:11:23;;;;;;;9.05;4.40;;;9.00;99.90;;;;;;5034607;28;20048;-75
2023/11/10 10:13:48;;;;;;;7.32;3.97;;;9.00;99.90;;;;;;5034044;28;20041;-75
2023/11/10 10:16:14;;;;;;;6.88;3.10;;;9.00;99.90;;;;;;5034513;28;20087;-75
2023/11/10 10:18:41;;;;;;;12.75;3.60;;;9.00;99.90;;;;;;5033070;28;20091;-74
2023/11/10 10:21:07;;;;;;;6.93;3.15;;;9.00;99.90;;;;;;5033251;28;20052;-74
2023/11/10 10:23:33;;;;;;;4.47;2.88;;;8.90;99.90;;;;;;5034070;28;20037;-75
2023/11/10 10:25:59;;;;;;;6.30;3.15;;;8.90;99.90;;;;;;5034457;28;20041;-75
2023/11/10 10:28:25;;;;;;;6.95;2.92;;;8.90;99.90;;;;;;5015946;28;20037;-75
2023/11/10 10:30:51;;;;;;;6.40;3.28;;;8.90;99.90;;;;;;5034358;28;20113;-75
2023/11/10 10:33:17;;;;;;;5.88;3.63;;;8.90;99.90;;;;;;5033930;28;20041;-75
2023/11/10 10:35:44;;;;;;;7.82;3.00;;;8.90;99.90;;;;;;5034279;28;20043;-75
2023/11/10 10:38:14;;;;;;;7.97;3.08;;;8.90;99.90;;;;;;5033996;28;20041;-75
2023/11/10 10:40:40;;;;;;;6.40;2.83;;;8.90;99.90;;;;;;5036498;22;20050;-75
2023/11/10 10:43:12;;;;;;;4.70;2.85;;;8.90;99.90;;;;;;4992223;28;20133;-76
2023/11/10 10:45:39;;;;;;;6.78;3.42;;;8.90;99.90;;;;;;4977028;28;20125;-76
2023/11/10 10:48:05;;;;;;;6.93;4.35;;;8.90;99.90;;;;;;4993228;28;20065;-75
2023/11/10 10:50:33;;;;;;;6.43;3.65;;;8.80;99.90;;;;;;4994417;28;20038;-76
2023/11/10 10:53:00;;;;;;;8.60;3.70;;;8.80;99.90;;;;;;4992749;28;20046;-76
2023/11/10 10:55:26;;;;;;;7.15;3.30;;;8.80;99.90;;;;;;4994288;28;20121;-76
2023/11/10 10:57:53;;;;;;;4.38;3.08;;;8.80;99.90;;;;;;4975926;28;20125;-76
2023/11/10 11:00:20;;;;;;;9.35;3.15;;;8.80;99.90;;;;;;4992342;28;20034;-76
2023/11/10 11:02:53;;;;;;;5.45;3.63;;;8.80;99.90;;;;;;4993211;28;20100;-76
2023/11/10 11:05:48;;;;;;;7.32;3.17;;;8.80;99.90;;;;;;4993816;28;20110;-76
2023/11/10 11:08:35;;;;;;;5.30;3.08;;;8.80;99.90;;;;;;4994333;28;20070;-75
2023/11/10 11:11:22;;;;;;;6.55;3.05;;;8.80;99.90;;;;;;4993153;28;20379;-76
2023/11/10 11:14:21;;;;;;;10.60;5.00;;;8.90;99.90;;;;;;4976413;28;20157;-76
2023/11/10 11:17:07;;;;;;;11.95;5.15;;;8.80;99.90;;;;;;4992710;28;20038;-76
2023/11/10 11:19:35;;;;;;;8.20;4.72;;;8.80;99.90;;;;;;4992475;28;20046;-75
2023/11/10 11:22:01;;;;;;;6.65;4.28;;;8.90;99.90;;;;;;4993811;28;20056;-75
2023/11/10 11:24:31;;;;;;;8.93;4.00;;;8.90;99.90;;;;;;4992123;28;20121;-76
2023/11/10 11:27:02;;;;;;;6.85;3.50;;;8.90;99.90;;;;;;4992808;28;20426;-75
2023/11/10 11:29:38;;;;;;;8.68;3.20;;;8.90;99.90;;;;;;4992319;28;20038;-76
2023/11/10 11:32:08;;;;;;;6.97;3.30;;;8.90;99.90;;;;;;4992408;28;20044;-76
2023/11/10 11:34:35;;;;;;;7.03;3.40;;;9.00;99.90;;;;;;4991241;28;20077;-76
2023/11/10 11:37:05;;;;;;;8.75;3.60;;;9.00;99.90;;;;;;4975781;28;20038;-76
2023/11/10 11:39:32;;;;;;;7.43;4.70;;;9.00;99.90;;;;;;4991910;28;20042;-76
2023/11/10 11:42:02;;;;;;;8.65;4.15;;;9.00;99.90;;;;;;4976192;28;20137;-76
2023/11/10 11:44:34;;;;;;;6.70;3.25;;;9.10;99.90;;;;;;4991760;28;20557;-76
2023/11/10 11:47:09;;;;;;;5.68;3.60;;;9.00;99.90;;;;;;4992358;28;20061;-76
2023/11/10 11:49:39;;;;;;;5.95;3.85;;;9.10;99.90;;;;;;4991731;28;20069;-75
2023/11/10 11:52:09;;;;;;;5.40;3.63;;;9.00;99.90;;;;;;4991801;28;20038;-76
2023/11/10 11:54:36;;;;;;;11.88;4.60;;;9.00;99.90;;;;;;4975691;28;20050;-76
2023/11/10 11:57:02;;;;;;;5.65;3.53;;;9.00;99.90;;;;;;4991517;28;20125;-76
2023/11/10 11:59:28;;;;;;;7.45;3.88;;;9.10;99.90;;;;;;4966649;28;20034;-75
2023/11/10 12:01:55;;;;;;;4.50;2.50;;;9.10;99.90;;;;;;4991625;28;20038;-76
2023/11/10 12:04:21;;;;;;;7.10;2.92;;;9.00;99.90;;;;;;4991359;28;20121;-76
2023/11/10 12:06:48;;;;;;;7.63;2.65;;;9.00;99.90;;;;;;4991733;28;20498;-76
2023/11/10 12:09:14;;;;;;;4.45;2.10;;;9.00;99.90;;;;;;4991528;28;20425;-76
2023/11/10 12:11:40;;;;;;;6.53;2.40;;;9.00;99.90;;;;;;4991828;28;20049;-75
2023/11/10 12:14:09;;;;;;;5.53;2.78;;;9.10;99.90;;;;;;4991265;28;20049;-74
2023/11/10 12:16:36;;;;;;;6.22;3.05;;;9.10;99.90;;;;;;4991244;28;20501;-74
2023/11/10 12:19:03;;;;;;;8.52;2.88;;;9.10;99.90;;;;;;4989319;28;20042;-74
2023/11/10 12:21:30;;;;;;;8.48;3.30;;;9.10;99.90;;;;;;4974309;28;20034;-74
2023/11/10 12:24:03;;;;;;;5.72;2.30;;;9.10;99.90;;;;;;4990409;28;20041;-75
2023/11/10 12:26:37;;;;;;;6.35;2.80;;;9.10;99.90;;;;;;4989150;28;20370;-75
2023/11/10 12:29:30;;;;;;;8.70;2.45;;;9.10;99.90;;;;;;5004288;28;20046;-75
2023/11/10 12:31:56;;;;;;;9.63;3.10;;;9.10;99.90;;;;;;5006835;28;20111;-74
2023/11/10 12:34:24;;;;;;;8.88;2.88;;;9.00;99.90;;;;;;4990887;28;20050;-74
2023/11/10 12:36:50;;;;;;;6.72;3.65;;;9.00;99.90;;;;;;4991269;28;20084;-75
2023/11/10 12:39:22;;;;;;;7.50;2.35;;;9.00;99.90;;;;;;4991186;28;20522;-74
2023/11/10 12:41:51;;;;;;;7.18;2.60;;;9.00;99.90;;;;;;4991121;28;20038;-75
2023/11/10 12:44:19;;;;;;;6.70;2.85;;;9.00;99.90;;;;;;4990751;28;20076;-74
2023/11/10 12:46:57;;;;;;;8.10;2.20;;;8.90;99.90;;;;;;4975206;28;20038;-74
2023/11/10 12:49:27;;;;;;;4.93;1.80;;;8.80;99.90;;;;;;4991304;28;20410;-75
2023/11/10 12:51:55;;;;;;;3.58;1.42;;;8.80;99.90;;;;;;4990616;28;20467;-75